Accueil
METAR-TAF:

METAR-TAF

Aéroports :

Bamako, Mali

Aéroport international Modibo Keïta

latitude: 12-32N, longitude: 007-57W, altitude: 380 m

Observation

Le bulletin a été fait il y a 41 minutes, à 09:00 UTC
Vent 9 kt de est/nord-est
Température 23°C
Humidité 19%
Pression 1016 hPa
Visibilité: 8000 m

METAR: GABS 240900Z 07009KT 8000 NSC 23/M02 Q1016 NOSIG

Heure: 09:41 (09:41 UTC)

Prévision

Le bulletin a été fait il y a 4 heures et 41 minutes, à 05:00 UTC
Prévision valable du 24 à 06 UTC au 25 à 12 UTC
Vent 10 kt de nord-est
Visibilité: 8000 m
Probabilité 40% :
Temporairement
du 24 à 06 UTC au 24 à 15 UTC
Visibilité: 4000 m
poussière généralisée

TAF: GABS 240500Z 2406/2512 05010KT 8000 NSC PROB40 TEMPO 2406/2415 4000 DU

Observations et prévisions météorologiques de plus de 4000 aéroports (messages METAR et TAF).

Les stations disponibles sont représentées par des disques jaunes et rouges sur la carte.

Passer la souris dessus pour voir le nom de la station.

Cliquer dessus pour voir les observations et prévisions météorologiques.

Pour changer de carte: cliquez sur les boutons verts avec une croix noire pour zoomer, sur le bouton vert avec un tiret pour effectuer un zoom arrière, ou sur les flèches vertes pour les cartes adjacentes.


METAR-TAF: